Time;durP1;ratioP1;P1;durP2;ratioP2;P2;SDS_P1;SDS_P2;PMS_P1;PMS_P2;Temp;Humidity;BMP_temperature;BMP_pressure;BME280_temperature;BME280_humidity;BME280_pressure;Samples;Min_cycle;Max_cycle;Signal;HPM_P1;HPM_P2
2022/08/31 00:04:01;;;;;;;3.93;3.73;;;27.70;60.90;;;;;;5051564;28;20439;-76
2022/08/31 00:06:31;;;;;;;3.87;3.57;;;27.70;60.90;;;;;;5051996;28;20452;-76
2022/08/31 00:09:01;;;;;;;4.13;3.87;;;27.70;60.90;;;;;;5051843;28;20470;-76
2022/08/31 00:11:30;;;;;;;3.80;3.60;;;27.70;60.90;;;;;;5051825;28;20543;-76
2022/08/31 00:14:02;;;;;;;3.60;3.30;;;27.70;60.90;;;;;;5051506;28;20524;-76
2022/08/31 00:16:34;;;;;;;3.70;3.50;;;27.70;60.90;;;;;;5051646;28;20470;-76
2022/08/31 00:19:02;;;;;;;3.77;3.57;;;27.70;60.90;;;;;;5055009;28;20481;-76
2022/08/31 00:21:31;;;;;;;3.63;3.33;;;27.70;60.90;;;;;;5055700;28;20526;-76
2022/08/31 00:24:00;;;;;;;4.20;3.80;;;27.70;60.90;;;;;;5055023;28;20949;-77
2022/08/31 00:26:31;;;;;;;3.93;3.73;;;27.70;60.90;;;;;;5055503;28;20483;-76
2022/08/31 00:28:59;;;;;;;4.10;3.90;;;27.70;60.90;;;;;;5054263;28;20495;-76
2022/08/31 00:31:27;;;;;;;3.90;3.70;;;27.70;60.90;;;;;;5054417;28;20538;-76
2022/08/31 00:33:56;;;;;;;3.87;3.63;;;27.70;60.90;;;;;;5053789;28;20448;-76
2022/08/31 00:36:25;;;;;;;4.17;3.87;;;27.70;60.90;;;;;;5055294;28;20499;-76
2022/08/31 00:38:55;;;;;;;3.57;3.37;;;27.70;60.90;;;;;;5055571;28;20467;-76
2022/08/31 00:41:27;;;;;;;4.10;3.80;;;27.70;60.90;;;;;;5053579;28;20843;-76
2022/08/31 00:43:59;;;;;;;3.97;3.67;;;27.70;60.90;;;;;;5055078;28;20497;-76
2022/08/31 00:46:29;;;;;;;4.20;3.90;;;27.70;60.90;;;;;;5055366;28;20781;-76
2022/08/31 00:49:09;;;;;;;4.20;3.90;;;27.70;60.90;;;;;;5053280;28;20966;-76
2022/08/31 00:51:41;;;;;;;3.93;3.63;;;27.60;61.00;;;;;;5055332;28;20443;-76
2022/08/31 00:54:12;;;;;;;3.97;3.77;;;27.70;61.00;;;;;;5054303;28;20562;-76
2022/08/31 00:56:43;;;;;;;3.70;3.50;;;27.60;61.00;;;;;;5054529;28;20538;-76
2022/08/31 00:59:13;;;;;;;3.40;3.20;;;27.60;61.00;;;;;;5051913;28;20472;-76
2022/08/31 01:01:41;;;;;;;3.60;3.40;;;27.60;61.00;;;;;;5053257;28;20989;-76
2022/08/31 01:04:10;;;;;;;3.83;3.53;;;27.60;61.00;;;;;;5054490;28;20458;-76
2022/08/31 01:06:39;;;;;;;3.60;3.40;;;27.60;61.00;;;;;;5054559;28;20439;-77
2022/08/31 01:09:08;;;;;;;3.77;3.47;;;27.60;61.00;;;;;;5055097;28;20518;-76
2022/08/31 01:11:38;;;;;;;3.77;3.57;;;27.60;61.00;;;;;;5053263;28;20491;-77
2022/08/31 01:14:09;;;;;;;3.43;3.23;;;27.60;61.00;;;;;;5048917;28;20573;-76
2022/08/31 01:16:41;;;;;;;3.50;3.30;;;27.60;61.00;;;;;;5051733;28;20963;-76
2022/08/31 01:19:17;;;;;;;3.83;3.60;;;27.60;61.00;;;;;;5052357;28;20474;-76
2022/08/31 01:21:52;;;;;;;3.70;3.50;;;27.60;61.00;;;;;;5052436;28;20464;-76
2022/08/31 01:24:24;;;;;;;3.50;3.30;;;27.60;61.00;;;;;;5052732;28;20497;-76
2022/08/31 01:26:56;;;;;;;3.93;3.70;;;27.60;61.00;;;;;;5052319;28;20487;-76
2022/08/31 01:29:24;;;;;;;4.07;3.80;;;27.60;61.10;;;;;;5053146;28;20933;-76
2022/08/31 01:31:52;;;;;;;3.50;3.30;;;27.60;61.10;;;;;;5054194;28;20436;-76
2022/08/31 01:34:23;;;;;;;3.87;3.60;;;27.60;61.00;;;;;;5066116;28;20459;-76
2022/08/31 01:36:53;;;;;;;3.53;3.33;;;27.60;61.00;;;;;;5054197;28;20439;-76
2022/08/31 01:39:22;;;;;;;3.80;3.60;;;27.60;61.10;;;;;;5054479;28;20508;-76
2022/08/31 01:41:51;;;;;;;3.73;3.43;;;27.50;61.10;;;;;;5053615;28;20452;-76
2022/08/31 01:44:21;;;;;;;4.23;3.93;;;27.50;61.10;;;;;;5053189;28;20463;-76
2022/08/31 01:46:50;;;;;;;3.47;3.27;;;27.50;61.10;;;;;;5052481;28;20463;-76
2022/08/31 01:49:21;;;;;;;4.20;3.90;;;27.50;61.10;;;;;;5052315;28;20957;-76
2022/08/31 01:51:51;;;;;;;3.93;3.63;;;27.50;61.10;;;;;;5053512;28;20497;-76
2022/08/31 01:54:21;;;;;;;4.07;3.80;;;27.50;61.10;;;;;;5053291;28;20467;-77
2022/08/31 01:56:51;;;;;;;4.03;3.63;;;27.50;61.10;;;;;;5052749;28;20509;-76
2022/08/31 01:59:27;;;;;;;3.93;3.63;;;27.50;61.10;;;;;;5040756;28;20467;-77
2022/08/31 02:02:05;;;;;;;4.07;3.87;;;27.50;61.10;;;;;;5049526;28;20580;-76
2022/08/31 02:04:33;;;;;;;3.80;3.50;;;27.50;61.10;;;;;;5053060;28;21088;-76
2022/08/31 02:07:02;;;;;;;4.20;3.90;;;27.50;61.10;;;;;;5068935;28;20451;-76
2022/08/31 02:09:33;;;;;;;4.03;3.83;;;27.50;61.10;;;;;;5045662;28;20973;-76
2022/08/31 02:12:03;;;;;;;4.00;3.70;;;27.50;61.10;;;;;;5048178;28;20451;-76
2022/08/31 02:14:33;;;;;;;4.30;4.00;;;27.50;61.10;;;;;;5053514;28;20450;-76
2022/08/31 02:17:01;;;;;;;4.67;4.20;;;27.50;61.10;;;;;;5051548;28;20480;-76
2022/08/31 02:19:29;;;;;;;3.63;3.43;;;27.50;61.10;;;;;;5051418;28;20824;-76
2022/08/31 02:21:57;;;;;;;3.60;3.40;;;27.50;61.10;;;;;;5050867;28;20469;-77
2022/08/31 02:24:27;;;;;;;3.30;3.10;;;27.50;61.20;;;;;;5032124;28;20459;-75
2022/08/31 02:26:56;;;;;;;3.57;3.27;;;27.50;61.20;;;;;;5047202;28;20486;-76
2022/08/31 02:29:27;;;;;;;3.63;3.43;;;27.50;61.20;;;;;;5053280;28;20497;-76
2022/08/31 02:31:57;;;;;;;4.23;3.40;;;27.50;61.20;;;;;;5051385;28;20510;-76
2022/08/31 02:34:26;;;;;;;4.20;3.90;;;27.40;61.20;;;;;;5052845;28;20465;-76
2022/08/31 02:36:55;;;;;;;3.70;3.40;;;27.40;61.20;;;;;;5051391;28;20553;-79
2022/08/31 02:39:24;;;;;;;3.97;3.67;;;27.50;61.20;;;;;;5051754;28;20477;-76
2022/08/31 02:41:52;;;;;;;3.93;3.63;;;27.40;61.20;;;;;;5051533;28;20460;-76
2022/08/31 02:44:20;;;;;;;3.73;3.43;;;27.40;61.20;;;;;;5050781;28;20462;-76
2022/08/31 02:46:50;;;;;;;3.40;3.20;;;27.40;61.20;;;;;;5051201;28;20491;-78
2022/08/31 02:49:47;;;;;;;4.00;3.80;;;27.40;61.20;;;;;;5047503;28;20458;-77
2022/08/31 02:52:16;;;;;;;4.13;3.80;;;27.40;61.20;;;;;;5051397;28;20824;-76
2022/08/31 02:54:44;;;;;;;3.33;3.13;;;27.40;61.20;;;;;;5051767;28;20482;-76
2022/08/31 02:57:12;;;;;;;6.87;4.00;;;27.40;61.20;;;;;;5051270;28;20471;-76
2022/08/31 02:59:41;;;;;;;4.87;4.57;;;27.40;61.20;;;;;;5051263;28;20497;-76
2022/08/31 03:02:10;;;;;;;3.70;3.50;;;27.40;61.20;;;;;;5050629;28;20516;-76
2022/08/31 03:04:40;;;;;;;4.00;3.80;;;27.40;61.20;;;;;;5050579;28;20489;-76
2022/08/31 03:07:09;;;;;;;3.60;3.30;;;27.40;61.30;;;;;;5051305;28;20453;-77
2022/08/31 03:09:37;;;;;;;3.80;3.50;;;27.40;61.20;;;;;;5052365;28;20517;-77
2022/08/31 03:12:06;;;;;;;4.50;4.13;;;27.40;61.20;;;;;;5052016;28;20491;-76
2022/08/31 03:14:35;;;;;;;3.80;3.60;;;27.40;61.20;;;;;;5034553;28;20465;-77
2022/08/31 03:17:03;;;;;;;4.10;3.90;;;27.40;61.30;;;;;;5043355;28;20833;-76
2022/08/31 03:19:34;;;;;;;3.93;3.73;;;27.40;61.30;;;;;;5050529;28;20487;-77
2022/08/31 03:22:04;;;;;;;4.13;3.83;;;27.40;61.30;;;;;;5051431;28;20471;-76
2022/08/31 03:24:32;;;;;;;3.30;3.10;;;27.40;61.20;;;;;;5052057;28;20482;-77
2022/08/31 03:27:00;;;;;;;4.63;3.70;;;27.40;61.20;;;;;;5052086;28;20956;-76
2022/08/31 03:29:28;;;;;;;3.63;3.43;;;27.40;61.30;;;;;;5050723;28;20459;-76
2022/08/31 03:32:17;;;;;;;3.50;3.30;;;27.40;61.30;;;;;;5048658;28;20462;-76
2022/08/31 03:34:53;;;;;;;3.67;3.47;;;27.40;61.20;;;;;;5050638;28;20535;-76
2022/08/31 03:37:21;;;;;;;3.80;3.60;;;27.40;61.30;;;;;;5050906;28;20466;-76
2022/08/31 03:39:51;;;;;;;4.10;3.80;;;27.40;61.30;;;;;;5050606;28;20487;-76
2022/08/31 03:42:19;;;;;;;3.43;3.13;;;27.40;61.30;;;;;;5045725;28;20458;-76
2022/08/31 03:44:48;;;;;;;4.07;3.83;;;27.40;61.30;;;;;;5050886;28;20991;-76
2022/08/31 03:47:22;;;;;;;4.07;3.80;;;27.30;61.30;;;;;;5050194;28;20549;-77
2022/08/31 03:49:56;;;;;;;4.43;4.13;;;27.30;61.30;;;;;;5050343;28;20954;-77
2022/08/31 03:52:29;;;;;;;3.70;3.50;;;27.30;61.30;;;;;;5050263;28;20452;-76
2022/08/31 03:55:05;;;;;;;3.60;3.30;;;27.30;61.30;;;;;;5050515;28;20537;-77
2022/08/31 03:57:35;;;;;;;4.00;3.73;;;27.30;61.30;;;;;;5046863;28;20463;-76
2022/08/31 04:00:06;;;;;;;3.27;3.07;;;27.30;61.30;;;;;;5050594;28;20852;-76
2022/08/31 04:02:40;;;;;;;4.33;4.03;;;27.30;61.30;;;;;;5051074;28;20442;-76
2022/08/31 04:05:32;;;;;;;3.90;3.60;;;27.30;61.30;;;;;;5059937;28;20449;-76
2022/08/31 04:08:12;;;;;;;3.60;3.40;;;27.30;61.30;;;;;;5051737;28;20535;-76
2022/08/31 04:10:59;;;;;;;4.40;4.10;;;27.30;61.30;;;;;;5051941;28;20443;-76
2022/08/31 04:13:33;;;;;;;4.40;4.10;;;27.30;61.30;;;;;;5051151;28;20556;-76
2022/08/31 04:16:23;;;;;;;4.10;3.80;;;27.30;61.30;;;;;;5020353;28;20488;-76
2022/08/31 04:18:51;;;;;;;4.57;4.27;;;27.30;61.30;;;;;;5051003;28;20972;-76
2022/08/31 04:21:24;;;;;;;5.00;4.60;;;27.30;61.30;;;;;;5050060;28;20480;-77
2022/08/31 04:23:54;;;;;;;3.90;3.70;;;27.30;61.30;;;;;;5050217;28;20498;-76
2022/08/31 04:26:28;;;;;;;4.30;4.00;;;27.30;61.30;;;;;;5050033;28;21004;-77
2022/08/31 04:28:56;;;;;;;3.40;3.20;;;27.30;61.30;;;;;;5031591;28;20448;-77
2022/08/31 04:31:26;;;;;;;3.73;3.53;;;27.30;61.30;;;;;;5038177;28;20456;-77
2022/08/31 04:33:56;;;;;;;4.10;3.90;;;27.30;61.30;;;;;;5050111;28;20483;-77
2022/08/31 04:36:28;;;;;;;3.90;3.70;;;27.30;61.30;;;;;;5049880;28;20964;-77
2022/08/31 04:38:59;;;;;;;4.03;3.83;;;27.30;61.30;;;;;;5050179;28;20445;-76
2022/08/31 04:41:29;;;;;;;4.50;4.20;;;27.30;61.30;;;;;;5051684;28;20544;-77
2022/08/31 04:43:59;;;;;;;3.40;3.20;;;27.30;61.30;;;;;;5050142;28;20450;-76
2022/08/31 04:46:28;;;;;;;4.30;4.00;;;27.30;61.30;;;;;;5051601;28;20461;-76
2022/08/31 04:48:56;;;;;;;4.60;4.20;;;27.30;61.30;;;;;;5050027;28;20454;-76
2022/08/31 04:51:28;;;;;;;4.03;3.63;;;27.30;61.30;;;;;;5050040;28;20486;-76
2022/08/31 04:53:57;;;;;;;4.20;3.90;;;27.30;61.30;;;;;;5036544;28;21931;-76
2022/08/31 04:56:28;;;;;;;4.53;4.23;;;27.30;61.30;;;;;;5083428;28;20478;-77
2022/08/31 04:58:58;;;;;;;4.23;3.93;;;27.30;61.30;;;;;;5050099;28;20523;-76
2022/08/31 05:01:31;;;;;;;4.50;4.20;;;27.30;61.30;;;;;;5049017;28;20504;-76
2022/08/31 05:04:22;;;;;;;4.23;3.93;;;27.30;61.40;;;;;;5051577;28;20490;-77
2022/08/31 05:06:52;;;;;;;3.40;3.20;;;27.30;61.30;;;;;;5053188;28;20457;-76
2022/08/31 05:09:22;;;;;;;4.50;4.20;;;27.30;61.40;;;;;;5054523;28;20443;-76
2022/08/31 05:11:53;;;;;;;3.77;3.57;;;27.30;61.40;;;;;;5053708;28;20447;-76
2022/08/31 05:14:23;;;;;;;3.90;3.60;;;27.30;61.40;;;;;;5053448;28;20462;-76
2022/08/31 05:17:01;;;;;;;3.70;3.50;;;27.30;61.40;;;;;;5052353;28;20853;-76
2022/08/31 05:19:32;;;;;;;3.80;3.60;;;27.30;61.40;;;;;;5053421;28;20494;-76
2022/08/31 05:22:07;;;;;;;4.20;3.90;;;27.30;61.40;;;;;;5053958;28;20485;-76
2022/08/31 05:24:37;;;;;;;3.90;3.67;;;27.30;61.40;;;;;;5053029;28;20470;-77
2022/08/31 05:27:06;;;;;;;3.93;3.70;;;27.30;61.40;;;;;;5053075;28;20482;-76
2022/08/31 05:29:34;;;;;;;4.00;3.70;;;27.30;61.40;;;;;;5053162;28;20452;-78
2022/08/31 05:32:21;;;;;;;4.37;4.07;;;27.30;61.40;;;;;;5034070;28;20433;-76
2022/08/31 05:34:53;;;;;;;4.80;4.40;;;27.20;61.40;;;;;;5032953;28;20509;-76
2022/08/31 05:37:22;;;;;;;4.70;4.40;;;27.20;61.40;;;;;;5034415;28;20474;-76
2022/08/31 05:39:51;;;;;;;4.30;4.00;;;27.20;61.40;;;;;;5033133;28;20809;-76
2022/08/31 05:42:19;;;;;;;4.30;4.00;;;27.20;61.40;;;;;;5040210;28;20567;-76
2022/08/31 05:44:48;;;;;;;4.93;4.10;;;27.20;61.40;;;;;;5052752;28;20460;-78
2022/08/31 05:47:17;;;;;;;4.60;4.30;;;27.20;61.40;;;;;;5051725;28;20482;-76
2022/08/31 05:49:45;;;;;;;4.30;4.00;;;27.20;61.40;;;;;;5052523;28;20520;-77
2022/08/31 05:52:18;;;;;;;3.63;3.43;;;27.20;61.40;;;;;;5052913;28;20466;-76
2022/08/31 05:54:54;;;;;;;4.33;4.03;;;27.20;61.40;;;;;;5052589;28;20857;-76
2022/08/31 05:57:22;;;;;;;4.23;3.93;;;27.20;61.40;;;;;;5053908;28;20497;-76
2022/08/31 05:59:55;;;;;;;3.90;3.70;;;27.20;61.40;;;;;;5085760;28;20531;-77
2022/08/31 06:02:26;;;;;;;4.40;4.10;;;27.20;61.40;;;;;;5051988;28;20480;-77
2022/08/31 06:04:57;;;;;;;4.27;3.97;;;27.20;61.40;;;;;;5052260;28;20482;-76
2022/08/31 06:07:26;;;;;;;3.87;3.57;;;27.20;61.40;;;;;;5038557;28;20467;-77
2022/08/31 06:10:00;;;;;;;4.33;4.03;;;27.20;61.40;;;;;;5053781;28;20478;-76
2022/08/31 06:12:33;;;;;;;4.90;4.60;;;27.20;61.40;;;;;;5052388;28;20585;-76
2022/08/31 06:15:04;;;;;;;4.80;4.50;;;27.20;61.40;;;;;;5051842;28;20956;-76
2022/08/31 06:17:33;;;;;;;4.50;4.17;;;27.20;61.40;;;;;;5061065;28;20493;-76
2022/08/31 06:20:03;;;;;;;4.50;4.13;;;27.20;61.40;;;;;;5071965;28;20933;-76
2022/08/31 06:22:33;;;;;;;4.43;4.20;;;27.20;61.40;;;;;;5066805;28;20518;-76
2022/08/31 06:25:05;;;;;;;4.73;4.43;;;27.20;61.40;;;;;;5052103;28;20461;-76
2022/08/31 06:27:37;;;;;;;4.57;4.27;;;27.20;61.40;;;;;;5051956;28;20493;-76
2022/08/31 06:30:07;;;;;;;4.13;3.83;;;27.20;61.40;;;;;;5052014;28;21022;-76
2022/08/31 06:32:36;;;;;;;3.80;3.60;;;27.20;61.40;;;;;;5048147;28;20463;-76
2022/08/31 06:35:06;;;;;;;4.93;4.63;;;27.20;61.40;;;;;;5031619;28;20468;-76
2022/08/31 06:37:55;;;;;;;4.77;4.47;;;27.20;61.40;;;;;;5015802;28;20940;-76
2022/08/31 06:40:48;;;;;;;4.50;4.20;;;27.20;61.40;;;;;;5033038;28;20865;-76
2022/08/31 06:43:39;;;;;;;4.20;3.90;;;27.20;61.40;;;;;;5046855;28;20448;-76
2022/08/31 06:46:22;;;;;;;4.47;4.17;;;27.20;61.40;;;;;;5051166;28;20840;-77
2022/08/31 06:49:09;;;;;;;4.13;3.83;;;27.20;61.40;;;;;;5043108;28;20466;-76
2022/08/31 06:51:38;;;;;;;3.90;3.60;;;27.20;61.40;;;;;;5031572;28;20483;-76
2022/08/31 06:54:08;;;;;;;5.10;4.80;;;27.20;61.40;;;;;;5032023;28;20466;-76
2022/08/31 06:57:16;;;;;;;4.73;4.43;;;27.20;61.40;;;;;;5044070;28;20449;-77
2022/08/31 07:00:03;;;;;;;4.43;4.13;;;27.20;61.40;;;;;;5037784;28;20435;-76
2022/08/31 07:02:34;;;;;;;4.60;4.33;;;27.20;61.30;;;;;;5052190;28;20527;-76
2022/08/31 07:05:04;;;;;;;3.90;3.60;;;27.20;61.30;;;;;;5051254;28;20552;-76
2022/08/31 07:07:32;;;;;;;4.93;4.63;;;27.20;61.30;;;;;;5049329;28;20520;-76
2022/08/31 07:10:01;;;;;;;4.50;4.20;;;27.30;61.30;;;;;;5051712;28;20460;-76
2022/08/31 07:12:30;;;;;;;4.43;4.13;;;27.30;61.30;;;;;;5051043;28;20451;-77
2022/08/31 07:14:59;;;;;;;4.63;4.33;;;27.30;61.30;;;;;;5050999;28;20455;-76
2022/08/31 07:17:28;;;;;;;4.53;4.20;;;27.30;61.30;;;;;;5049608;28;20490;-77
2022/08/31 07:19:56;;;;;;;4.30;4.00;;;27.30;61.30;;;;;;5031244;28;21073;-76
2022/08/31 07:22:26;;;;;;;4.50;4.20;;;27.30;61.20;;;;;;5030933;28;20526;-76
2022/08/31 07:25:06;;;;;;;3.80;3.60;;;27.30;61.20;;;;;;5045322;28;20455;-79
2022/08/31 07:27:36;;;;;;;5.00;4.60;;;27.30;61.20;;;;;;5049850;28;20852;-76
2022/08/31 07:30:06;;;;;;;4.77;4.47;;;27.30;61.20;;;;;;5051933;28;20455;-76
2022/08/31 07:32:34;;;;;;;4.10;3.80;;;27.30;61.20;;;;;;5050689;28;20461;-76
2022/08/31 07:35:02;;;;;;;4.30;4.00;;;27.30;61.10;;;;;;5050488;28;20469;-76
2022/08/31 07:43:05;;;;;;;4.57;4.27;;;27.30;61.10;;;;;;5047564;28;20479;-76
2022/08/31 07:45:35;;;;;;;4.30;4.00;;;27.30;61.10;;;;;;5032103;28;21048;-76
2022/08/31 07:48:07;;;;;;;4.30;4.10;;;27.30;61.10;;;;;;5050197;28;21019;-77
2022/08/31 07:50:58;;;;;;;4.23;4.00;;;27.30;61.10;;;;;;5059168;28;20470;-76
2022/08/31 07:53:46;;;;;;;4.47;4.17;;;27.30;61.10;;;;;;5032221;28;20440;-76
2022/08/31 07:56:30;;;;;;;3.90;3.70;;;27.30;61.10;;;;;;5039921;28;20477;-76
2022/08/31 07:59:13;;;;;;;4.07;3.77;;;27.40;61.10;;;;;;5051933;28;20489;-76
2022/08/31 08:01:43;;;;;;;4.10;3.87;;;27.30;61.10;;;;;;5050544;28;20549;-76
2022/08/31 08:04:24;;;;;;;4.30;4.00;;;27.40;61.00;;;;;;5050019;28;20462;-76
2022/08/31 08:07:11;;;;;;;4.60;4.30;;;27.40;61.00;;;;;;5052146;28;20455;-76
2022/08/31 08:10:13;;;;;;;4.87;4.57;;;27.40;61.00;;;;;;5050949;28;20466;-76
2022/08/31 08:12:55;;;;;;;4.80;4.50;;;27.40;61.00;;;;;;5050736;28;20531;-76
2022/08/31 08:15:36;;;;;;;4.90;4.53;;;27.40;61.00;;;;;;5050589;28;20469;-77
2022/08/31 08:18:43;;;;;;;4.00;3.70;;;27.40;61.00;;;;;;5009607;28;20476;-76
2022/08/31 08:21:13;;;;;;;4.50;4.20;;;27.40;61.00;;;;;;5023247;28;20461;-76
2022/08/31 08:23:43;;;;;;;4.07;3.87;;;27.40;60.90;;;;;;5083085;28;20556;-77
2022/08/31 08:26:34;;;;;;;4.33;4.03;;;27.40;61.00;;;;;;5050200;28;20497;-76
2022/08/31 08:29:19;;;;;;;4.43;4.13;;;27.40;61.00;;;;;;5050858;28;20477;-76
2022/08/31 08:31:51;;;;;;;4.27;3.97;;;27.40;61.00;;;;;;5050007;28;20969;-76
2022/08/31 08:34:21;;;;;;;4.33;4.03;;;27.40;61.00;;;;;;5050227;28;20470;-76
2022/08/31 08:37:00;;;;;;;4.47;4.17;;;27.40;61.00;;;;;;5051063;28;20528;-76
2022/08/31 08:39:28;;;;;;;4.47;4.17;;;27.40;60.90;;;;;;5055516;28;20452;-77
2022/08/31 08:42:12;;;;;;;4.60;4.23;;;27.40;60.90;;;;;;5034255;28;21128;-76
2022/08/31 08:44:43;;;;;;;4.70;4.37;;;27.40;61.00;;;;;;5034249;28;20509;-76
2022/08/31 08:47:17;;;;;;;4.17;3.87;;;27.40;60.90;;;;;;5050933;28;20473;-76
2022/08/31 08:49:52;;;;;;;4.77;4.37;;;27.40;60.90;;;;;;5053559;28;20539;-76
2022/08/31 08:52:30;;;;;;;4.30;4.00;;;27.40;60.90;;;;;;5054244;28;20466;-76
2022/08/31 08:55:02;;;;;;;4.53;4.23;;;27.40;60.90;;;;;;5053621;28;20453;-77
2022/08/31 08:57:33;;;;;;;4.43;4.13;;;27.40;60.90;;;;;;5053659;28;21026;-76
2022/08/31 09:00:09;;;;;;;4.53;4.23;;;27.40;60.90;;;;;;5047863;28;20477;-75
2022/08/31 09:02:46;;;;;;;4.07;3.80;;;27.40;60.90;;;;;;5053657;28;20480;-76
2022/08/31 09:05:41;;;;;;;4.93;4.63;;;27.40;60.90;;;;;;5054585;28;20446;-77
2022/08/31 09:09:07;;;;;;;3.63;3.43;;;27.40;60.90;;;;;;5055136;28;20456;-76
2022/08/31 09:11:51;;;;;;;4.67;4.37;;;27.40;61.00;;;;;;5053884;28;20888;-76
2022/08/31 09:14:32;;;;;;;4.37;4.07;;;27.40;61.00;;;;;;5053695;28;20466;-76
2022/08/31 09:17:09;;;;;;;4.33;4.13;;;27.40;61.00;;;;;;5050063;28;20483;-76
2022/08/31 09:20:00;;;;;;;3.80;3.60;;;27.40;61.00;;;;;;5054797;28;20434;-76
2022/08/31 09:22:32;;;;;;;4.43;4.13;;;27.40;60.90;;;;;;5054828;28;20941;-76
2022/08/31 09:25:02;;;;;;;3.83;3.60;;;27.40;61.00;;;;;;5052907;28;20454;-76
2022/08/31 09:28:10;;;;;;;4.40;4.10;;;27.30;61.00;;;;;;5011284;28;20979;-76
2022/08/31 09:30:50;;;;;;;5.10;4.70;;;27.30;61.00;;;;;;5046785;28;20953;-76
2022/08/31 09:33:22;;;;;;;4.80;4.50;;;27.30;61.00;;;;;;5049172;28;20458;-76
2022/08/31 09:35:55;;;;;;;4.33;4.03;;;27.30;61.10;;;;;;5054543;28;20434;-76
2022/08/31 09:38:29;;;;;;;5.10;4.70;;;27.30;61.10;;;;;;5054260;28;20861;-76
2022/08/31 09:40:57;;;;;;;3.57;3.37;;;27.30;61.10;;;;;;5053133;28;20458;-76
2022/08/31 09:43:37;;;;;;;4.70;4.40;;;27.30;61.10;;;;;;5053972;28;20606;-76
2022/08/31 09:46:10;;;;;;;4.23;3.93;;;27.30;61.10;;;;;;5054309;28;20445;-77
2022/08/31 09:48:43;;;;;;;4.60;4.30;;;27.30;61.10;;;;;;5053413;28;20464;-76
2022/08/31 09:51:24;;;;;;;4.37;4.07;;;27.30;61.10;;;;;;5054625;28;20930;-76
2022/08/31 09:56:54;;;;;;;4.30;4.00;;;27.30;61.10;;;;;;5054165;28;20479;-77
2022/08/31 09:59:32;;;;;;;4.23;3.93;;;27.30;61.10;;;;;;5053800;28;20945;-76
2022/08/31 10:02:01;;;;;;;4.23;3.93;;;27.30;61.10;;;;;;5053803;28;20434;-76
2022/08/31 10:04:36;;;;;;;4.60;4.30;;;27.30;61.10;;;;;;5053795;28;20498;-76
2022/08/31 10:07:20;;;;;;;4.23;4.00;;;27.30;61.10;;;;;;5053970;28;20957;-76
2022/08/31 10:09:54;;;;;;;4.17;3.87;;;27.30;61.10;;;;;;5051120;28;20454;-76
2022/08/31 10:12:39;;;;;;;3.50;3.30;;;27.30;61.10;;;;;;5048420;28;20462;-76
2022/08/31 10:15:14;;;;;;;4.20;3.90;;;27.30;61.10;;;;;;5053976;28;20440;-76
2022/08/31 10:17:50;;;;;;;4.10;3.80;;;27.30;61.10;;;;;;5049705;28;20516;-76
2022/08/31 10:20:23;;;;;;;3.90;3.70;;;27.30;61.10;;;;;;5033415;28;20427;-76
2022/08/31 10:23:07;;;;;;;4.17;3.97;;;27.30;61.10;;;;;;5036607;28;20445;-76
2022/08/31 10:25:46;;;;;;;4.77;4.43;;;27.30;61.10;;;;;;5053340;28;20570;-76
2022/08/31 10:28:18;;;;;;;4.70;4.40;;;27.30;61.10;;;;;;5053470;28;20525;-76
2022/08/31 10:30:54;;;;;;;4.63;4.33;;;27.30;61.10;;;;;;5052933;28;20481;-76
2022/08/31 10:35:01;;;;;;;4.60;4.27;;;27.30;61.10;;;;;;5052818;28;20446;-76
2022/08/31 10:36:17;;;;;;;4.70;4.40;;;27.30;61.10;;;;;;5053334;28;20952;-76
2022/08/31 10:38:49;;;;;;;4.77;4.40;;;27.30;61.10;;;;;;5053322;28;20550;-76
2022/08/31 10:41:22;;;;;;;4.80;4.50;;;27.30;61.10;;;;;;5053196;28;20463;-76
2022/08/31 10:43:58;;;;;;;4.60;4.20;;;27.30;61.10;;;;;;5053344;28;20525;-76
2022/08/31 10:46:29;;;;;;;4.20;3.90;;;27.30;61.10;;;;;;5051621;28;20511;-76
2022/08/31 10:48:59;;;;;;;4.27;3.97;;;27.30;61.10;;;;;;5051897;28;20623;-76
2022/08/31 10:51:36;;;;;;;4.20;3.97;;;27.30;61.10;;;;;;5053081;28;20490;-76
2022/08/31 10:54:27;;;;;;;4.93;4.53;;;27.30;61.10;;;;;;5052860;28;20496;-76
2022/08/31 10:57:06;;;;;;;4.37;4.03;;;27.30;61.10;;;;;;5052328;28;21003;-76
2022/08/31 10:59:40;;;;;;;4.07;3.87;;;27.30;61.10;;;;;;5052408;28;20862;-76
2022/08/31 11:02:37;;;;;;;4.73;4.43;;;27.30;61.10;;;;;;5049630;28;20454;-76
2022/08/31 11:05:21;;;;;;;4.00;3.70;;;27.30;61.10;;;;;;5084470;28;20473;-76
2022/08/31 11:07:58;;;;;;;3.87;3.67;;;27.30;61.00;;;;;;5052332;28;20450;-76
2022/08/31 11:10:41;;;;;;;4.20;4.00;;;27.30;61.00;;;;;;5052587;28;20458;-76
2022/08/31 11:13:19;;;;;;;4.83;4.53;;;27.30;61.00;;;;;;5052654;28;20483;-76
2022/08/31 11:16:18;;;;;;;4.33;4.03;;;27.30;61.00;;;;;;5052810;28;20431;-76
2022/08/31 11:19:11;;;;;;;4.63;4.33;;;27.30;61.00;;;;;;5052336;28;20989;-76
2022/08/31 11:22:12;;;;;;;4.40;4.10;;;27.30;61.00;;;;;;5029802;28;20556;-75
2022/08/31 11:24:59;;;;;;;4.13;3.83;;;27.30;61.00;;;;;;5032585;28;20467;-76
2022/08/31 11:27:35;;;;;;;4.67;4.37;;;27.40;60.90;;;;;;5048063;28;20532;-75
2022/08/31 11:30:07;;;;;;;3.93;3.70;;;27.40;60.90;;;;;;5052400;28;20929;-76
2022/08/31 11:32:41;;;;;;;4.73;4.43;;;27.40;60.90;;;;;;5052149;28;20439;-76
2022/08/31 11:35:10;;;;;;;4.33;4.03;;;27.40;60.90;;;;;;5051885;28;20512;-76
2022/08/31 11:37:59;;;;;;;3.60;3.40;;;27.40;60.90;;;;;;5052218;28;20458;-77
2022/08/31 11:41:09;;;;;;;4.60;4.30;;;27.40;60.90;;;;;;5047031;28;20976;-76
2022/08/31 11:43:52;;;;;;;4.37;4.07;;;27.40;60.80;;;;;;5032056;28;20435;-75
2022/08/31 11:46:44;;;;;;;4.70;4.40;;;27.40;60.90;;;;;;5031745;28;20458;-76
2022/08/31 11:49:54;;;;;;;4.20;3.80;;;27.40;60.90;;;;;;5046292;28;20446;-76
2022/08/31 11:52:41;;;;;;;4.10;3.90;;;27.40;60.90;;;;;;5038527;28;20874;-76
2022/08/31 11:55:28;;;;;;;4.70;4.40;;;27.50;60.80;;;;;;5052262;28;20442;-76
2022/08/31 11:58:30;;;;;;;4.47;4.17;;;27.50;60.80;;;;;;5038271;28;20848;-76
2022/08/31 12:01:11;;;;;;;5.03;4.63;;;27.50;60.80;;;;;;5051193;28;20971;-76
2022/08/31 12:03:51;;;;;;;4.73;4.37;;;27.50;60.70;;;;;;5051562;28;20446;-76
2022/08/31 12:07:05;;;;;;;4.60;4.30;;;27.50;60.70;;;;;;5050170;28;20481;-76
2022/08/31 12:10:18;;;;;;;4.00;3.77;;;27.60;60.60;;;;;;5051954;28;20439;-75
2022/08/31 12:13:29;;;;;;;4.50;4.20;;;27.60;60.60;;;;;;5010274;28;20462;-76
2022/08/31 12:16:28;;;;;;;4.03;3.83;;;27.60;60.60;;;;;;5036218;28;20962;-77
2022/08/31 12:25:26;;;;;;;4.07;3.77;;;27.60;60.50;;;;;;5053012;28;21067;-77
2022/08/31 12:28:05;;;;;;;4.47;4.17;;;27.60;60.50;;;;;;5041769;28;20454;-75
2022/08/31 12:30:33;;;;;;;4.40;4.10;;;27.70;60.50;;;;;;5054609;28;20457;-76
2022/08/31 12:33:09;;;;;;;4.10;3.90;;;27.70;60.40;;;;;;5055425;28;20481;-76
2022/08/31 12:35:38;;;;;;;4.07;3.87;;;27.70;60.40;;;;;;5055529;28;20919;-77
2022/08/31 12:38:09;;;;;;;4.23;3.93;;;27.70;60.40;;;;;;5055684;28;20490;-78
2022/08/31 12:40:44;;;;;;;4.03;3.73;;;27.70;60.40;;;;;;5055489;28;20455;-75
2022/08/31 12:43:17;;;;;;;3.93;3.73;;;27.70;60.30;;;;;;5054591;28;20519;-76
2022/08/31 12:46:28;;;;;;;4.10;3.90;;;27.70;60.30;;;;;;5055582;28;20480;-75
2022/08/31 12:49:16;;;;;;;4.93;4.63;;;27.70;60.30;;;;;;5039770;28;20958;-76
2022/08/31 12:51:47;;;;;;;3.30;3.10;;;27.70;60.30;;;;;;5045843;28;20491;-77
2022/08/31 12:54:48;;;;;;;3.90;3.70;;;27.80;60.20;;;;;;5048552;28;20457;-76
2022/08/31 12:57:35;;;;;;;3.80;3.60;;;27.80;60.20;;;;;;5040903;28;20460;-76
2022/08/31 13:00:08;;;;;;;4.20;3.90;;;27.80;60.20;;;;;;5055650;28;20466;-76
2022/08/31 13:02:42;;;;;;;4.00;3.80;;;27.80;60.20;;;;;;5054840;28;20450;-76
2022/08/31 13:05:20;;;;;;;3.80;3.53;;;27.80;60.10;;;;;;5054853;28;20501;-76
2022/08/31 13:07:49;;;;;;;4.43;4.10;;;27.80;60.10;;;;;;5055043;28;20502;-76
2022/08/31 13:10:28;;;;;;;3.97;3.77;;;27.80;60.10;;;;;;5054516;28;20459;-76
2022/08/31 13:12:59;;;;;;;4.67;4.37;;;27.80;60.10;;;;;;5055097;28;20484;-75
2022/08/31 13:15:30;;;;;;;4.00;3.80;;;27.90;60.10;;;;;;5055033;28;20420;-77
2022/08/31 13:18:00;;;;;;;4.90;4.50;;;27.90;60.10;;;;;;5054481;28;20528;-76
2022/08/31 13:20:42;;;;;;;3.87;3.63;;;27.90;60.00;;;;;;5054467;28;20448;-76
2022/08/31 13:23:13;;;;;;;4.43;4.17;;;27.90;60.00;;;;;;5054305;28;20789;-77
2022/08/31 13:25:43;;;;;;;4.87;4.57;;;27.90;60.00;;;;;;5053476;28;20503;-76
2022/08/31 13:28:24;;;;;;;4.03;3.63;;;27.90;60.00;;;;;;5054435;28;20926;-77
2022/08/31 13:31:00;;;;;;;3.77;3.57;;;27.90;60.00;;;;;;5054880;28;20777;-76
2022/08/31 13:33:40;;;;;;;4.37;4.07;;;27.90;60.00;;;;;;5054737;28;20444;-76
2022/08/31 13:36:30;;;;;;;4.10;3.80;;;28.00;59.90;;;;;;5068053;28;20457;-76
2022/08/31 13:39:02;;;;;;;4.20;3.90;;;28.00;59.90;;;;;;5033454;28;20433;-76
2022/08/31 13:41:34;;;;;;;4.27;4.07;;;28.00;59.90;;;;;;5064275;28;20478;-76
2022/08/31 13:44:08;;;;;;;4.03;3.83;;;28.00;59.80;;;;;;5059733;28;20475;-76
2022/08/31 13:46:39;;;;;;;4.53;4.23;;;28.00;59.90;;;;;;5053986;28;20507;-77
2022/08/31 13:49:29;;;;;;;3.97;3.77;;;28.00;59.90;;;;;;5052619;28;20858;-76